Time;durP1;ratioP1;P1;durP2;ratioP2;P2;SDS_P1;SDS_P2;PMS_P1;PMS_P2;Temp;Humidity;BMP_temperature;BMP_pressure;BME280_temperature;BME280_humidity;BME280_pressure;Samples;Min_cycle;Max_cycle;Signal;HPM_P1;HPM_P2
2022/08/24 00:01:46;;;;;;;2.53;1.00;;;11.80;90.70;;;;;;4898098;29;20033;-78
2022/08/24 00:04:13;;;;;;;3.50;0.80;;;11.90;91.00;;;;;;4898085;29;20037;-75
2022/08/24 00:06:41;;;;;;;2.22;1.00;;;11.90;91.20;;;;;;4897172;29;20021;-76
2022/08/24 00:09:08;;;;;;;5.78;1.40;;;11.90;90.80;;;;;;4898257;29;20039;-80
2022/08/24 00:11:35;;;;;;;3.15;1.50;;;12.00;90.60;;;;;;4898057;29;20024;-78
2022/08/24 00:14:03;;;;;;;4.53;1.08;;;12.10;90.90;;;;;;4897233;29;20040;-74
2022/08/24 00:16:30;;;;;;;2.03;0.85;;;12.20;91.00;;;;;;4897899;29;20024;-67
2022/08/24 00:19:01;;;;;;;3.10;0.90;;;12.20;90.40;;;;;;4897892;29;20040;-76
2022/08/24 00:21:28;;;;;;;1.67;0.90;;;12.30;90.30;;;;;;4898138;29;20370;-76
2022/08/24 00:23:56;;;;;;;4.05;1.40;;;12.40;90.30;;;;;;4897979;29;20040;-77
2022/08/24 00:26:24;;;;;;;1.92;0.93;;;12.40;90.40;;;;;;4896841;29;20028;-77
2022/08/24 00:28:51;;;;;;;3.90;1.13;;;12.40;90.40;;;;;;4897603;29;20037;-79
2022/08/24 00:31:20;;;;;;;5.85;1.30;;;12.50;90.10;;;;;;4897338;29;20036;-78
2022/08/24 00:33:47;;;;;;;2.50;1.00;;;12.60;90.10;;;;;;4897695;29;20024;-79
2022/08/24 00:36:15;;;;;;;2.38;1.23;;;12.60;90.20;;;;;;4896103;29;20037;-71
2022/08/24 00:38:42;;;;;;;3.10;1.20;;;12.60;90.20;;;;;;4897336;29;20036;-78
2022/08/24 00:41:13;;;;;;;2.88;1.10;;;12.70;90.00;;;;;;4897252;29;20033;-76
2022/08/24 00:43:57;;;;;;;3.60;0.90;;;12.70;89.80;;;;;;4898112;29;20389;-79
2022/08/24 00:46:30;;;;;;;1.92;0.90;;;12.90;89.80;;;;;;4897937;29;20032;-72
2022/08/24 00:49:12;;;;;;;4.05;1.20;;;12.90;89.90;;;;;;4897779;29;20025;-73
2022/08/24 00:51:49;;;;;;;3.77;1.20;;;13.00;90.10;;;;;;4897172;29;20485;-77
2022/08/24 00:54:18;;;;;;;5.00;1.17;;;13.10;89.80;;;;;;4897092;29;20032;-70
2022/08/24 00:56:58;;;;;;;3.80;1.10;;;13.20;90.10;;;;;;4897463;29;20172;-72
2022/08/24 00:59:44;;;;;;;3.75;0.90;;;13.40;88.60;;;;;;4896769;29;20059;-70
2022/08/24 01:02:20;;;;;;;4.43;1.10;;;13.40;88.60;;;;;;4897103;29;20076;-71
2022/08/24 01:05:04;;;;;;;2.72;1.55;;;13.60;88.90;;;;;;4895945;29;20028;-75
2022/08/24 01:07:33;;;;;;;4.20;1.23;;;13.80;88.60;;;;;;4896929;29;20408;-79
2022/08/24 01:10:12;;;;;;;3.78;1.17;;;13.90;88.40;;;;;;4897711;29;20043;-81
2022/08/24 01:12:43;;;;;;;5.03;1.10;;;13.90;88.50;;;;;;4897932;29;20025;-79
2022/08/24 01:15:14;;;;;;;5.47;1.20;;;14.20;89.30;;;;;;4895202;29;20104;-79
2022/08/24 01:20:28;;;;;;;3.97;1.20;;;14.30;87.90;;;;;;4897537;29;20051;-78
2022/08/24 01:23:25;;;;;;;1.77;0.98;;;14.50;87.80;;;;;;4896852;29;20032;-73
2022/08/24 01:25:53;;;;;;;3.80;1.23;;;14.60;87.70;;;;;;4890441;29;20047;-80
2022/08/24 01:28:24;;;;;;;4.90;1.25;;;14.70;86.50;;;;;;4894664;29;20033;-78
2022/08/24 01:30:51;;;;;;;3.95;1.75;;;14.80;86.40;;;;;;4897151;29;20769;-78
2022/08/24 01:33:27;;;;;;;4.72;2.90;;;14.90;86.80;;;;;;4896806;29;20386;-76
2022/08/24 01:36:02;;;;;;;4.18;1.13;;;15.00;86.00;;;;;;4895970;29;20056;-78
2022/08/24 01:38:32;;;;;;;2.80;1.10;;;15.20;85.30;;;;;;4896795;29;20112;-74
2022/08/24 01:41:03;;;;;;;4.32;1.00;;;15.20;83.40;;;;;;4897141;29;20029;-68
2022/08/24 01:43:31;;;;;;;3.60;1.00;;;15.20;82.40;;;;;;4896780;29;20073;-69
2022/08/24 01:46:02;;;;;;;3.15;1.00;;;15.30;83.80;;;;;;4896513;29;20490;-75
2022/08/24 01:48:30;;;;;;;3.00;0.73;;;15.50;82.90;;;;;;4896798;29;20115;-69
2022/08/24 01:50:57;;;;;;;3.78;1.23;;;15.60;82.30;;;;;;4896432;29;20706;-64
2022/08/24 01:53:28;;;;;;;4.15;1.20;;;15.80;81.70;;;;;;4896425;29;20036;-66
2022/08/24 01:55:56;;;;;;;3.20;1.20;;;15.90;82.00;;;;;;4895145;29;20029;-74
2022/08/24 01:58:23;;;;;;;6.80;1.38;;;16.10;81.50;;;;;;4896185;29;20055;-77
2022/08/24 02:00:52;;;;;;;3.10;1.08;;;16.30;82.20;;;;;;4896817;29;20025;-74
2022/08/24 02:03:21;;;;;;;2.20;0.93;;;16.50;80.90;;;;;;4896592;29;20081;-77
2022/08/24 02:05:48;;;;;;;5.78;1.10;;;16.50;80.30;;;;;;4895484;29;20116;-72
2022/08/24 02:08:15;;;;;;;3.00;1.27;;;16.50;79.80;;;;;;4896650;29;20033;-72
2022/08/24 02:10:43;;;;;;;4.13;1.25;;;16.70;80.00;;;;;;4895432;29;20029;-71
2022/08/24 02:13:11;;;;;;;4.38;1.15;;;16.80;79.90;;;;;;4896384;29;20387;-70
2022/08/24 02:15:39;;;;;;;4.35;1.98;;;16.90;78.80;;;;;;4895579;29;20040;-74
2022/08/24 02:18:11;;;;;;;5.32;1.58;;;17.00;79.50;;;;;;4896656;29;20434;-73
2022/08/24 02:20:39;;;;;;;5.82;1.90;;;17.20;79.00;;;;;;4896185;29;20083;-68
2022/08/24 02:23:07;;;;;;;4.60;1.73;;;17.20;78.00;;;;;;4896450;29;20025;-73
2022/08/24 02:25:35;;;;;;;2.72;1.10;;;17.10;78.10;;;;;;4896562;29;20032;-69
2022/08/24 02:28:03;;;;;;;5.68;1.58;;;17.20;77.90;;;;;;4896430;29;20021;-74
2022/08/24 02:30:34;;;;;;;7.95;2.47;;;17.30;78.10;;;;;;4898714;29;20024;-75
2022/08/24 02:33:01;;;;;;;5.07;1.90;;;17.40;77.60;;;;;;4897935;29;20482;-72
2022/08/24 02:35:30;;;;;;;4.57;1.58;;;17.60;76.90;;;;;;4898199;29;20025;-76
2022/08/24 02:37:59;;;;;;;5.25;1.40;;;17.80;75.80;;;;;;4897905;29;20024;-73
2022/08/24 02:40:27;;;;;;;5.93;1.88;;;18.00;74.50;;;;;;4898104;29;20064;-69
2022/08/24 02:42:54;;;;;;;3.00;1.10;;;18.20;74.10;;;;;;4898157;29;20021;-77
2022/08/24 02:45:22;;;;;;;2.28;0.95;;;18.70;72.40;;;;;;4898700;29;20036;-76
2022/08/24 02:47:50;;;;;;;5.38;1.58;;;19.00;71.80;;;;;;4900109;29;20032;-72
2022/08/24 02:50:18;;;;;;;4.88;1.20;;;19.40;70.60;;;;;;4899823;29;20040;-75
2022/08/24 02:52:46;;;;;;;4.45;1.67;;;19.60;70.70;;;;;;4899716;29;20025;-72
2022/08/24 02:55:18;;;;;;;3.87;0.97;;;19.40;69.60;;;;;;4899353;29;20083;-75
2022/08/24 02:57:49;;;;;;;5.17;1.80;;;18.80;71.40;;;;;;4899632;29;20084;-69
2022/08/24 03:00:23;;;;;;;5.22;1.38;;;19.00;71.60;;;;;;4899502;29;20036;-72
2022/08/24 03:02:52;;;;;;;2.03;1.40;;;19.90;70.30;;;;;;4899486;29;20115;-76
2022/08/24 03:05:20;;;;;;;3.42;1.63;;;20.60;69.40;;;;;;4899365;29;20434;-72
2022/08/24 03:07:51;;;;;;;3.35;1.15;;;21.30;68.40;;;;;;4899554;29;20115;-73
2022/08/24 03:10:20;;;;;;;2.27;1.20;;;22.10;67.20;;;;;;4899628;29;20474;-76
2022/08/24 03:12:51;;;;;;;3.67;1.25;;;22.70;63.80;;;;;;4898721;29;20394;-75
2022/08/24 03:15:21;;;;;;;4.38;1.15;;;22.10;65.30;;;;;;4899387;29;20112;-72
2022/08/24 03:17:52;;;;;;;3.80;1.08;;;22.10;66.80;;;;;;4882415;29;20065;-75
2022/08/24 03:20:21;;;;;;;5.32;1.75;;;22.50;64.60;;;;;;4899468;29;20545;-70
2022/08/24 03:22:50;;;;;;;5.50;1.60;;;23.00;65.10;;;;;;4899428;29;20108;-75
2022/08/24 03:25:19;;;;;;;4.95;1.70;;;23.20;63.30;;;;;;4899101;29;20486;-74
2022/08/24 03:27:47;;;;;;;3.65;1.20;;;23.10;62.50;;;;;;4899398;29;20033;-76
2022/08/24 03:30:16;;;;;;;3.30;1.33;;;23.10;62.70;;;;;;4899232;29;20020;-68
2022/08/24 03:32:44;;;;;;;8.27;1.40;;;23.50;64.80;;;;;;4899464;29;20051;-72
2022/08/24 03:35:14;;;;;;;3.88;1.38;;;23.60;62.10;;;;;;4899302;29;20029;-66
2022/08/24 03:37:41;;;;;;;6.18;1.45;;;23.30;62.40;;;;;;4899129;29;20040;-72
2022/08/24 03:40:11;;;;;;;4.75;1.52;;;23.20;62.60;;;;;;4898716;29;20035;-74
2022/08/24 03:42:41;;;;;;;5.38;1.52;;;23.30;62.20;;;;;;4898424;29;20013;-73
2022/08/24 03:45:10;;;;;;;6.95;1.35;;;23.20;62.40;;;;;;4898514;29;20021;-74
2022/08/24 03:47:37;;;;;;;5.25;1.30;;;23.20;62.60;;;;;;4898843;29;20422;-74
2022/08/24 03:50:06;;;;;;;3.75;1.50;;;23.50;62.10;;;;;;4898963;29;20029;-74
2022/08/24 03:52:34;;;;;;;5.07;1.27;;;23.30;61.50;;;;;;4898268;29;20080;-73
2022/08/24 03:55:06;;;;;;;7.90;1.50;;;23.00;62.90;;;;;;4898638;29;20043;-74
2022/08/24 03:57:34;;;;;;;5.03;1.58;;;22.50;63.30;;;;;;4898044;29;20031;-75
2022/08/24 04:00:04;;;;;;;4.75;1.50;;;22.40;63.40;;;;;;4897364;29;20036;-75
2022/08/24 04:02:32;;;;;;;7.30;1.95;;;22.40;64.10;;;;;;4897258;29;20030;-73
2022/08/24 04:04:59;;;;;;;8.30;1.45;;;22.70;64.00;;;;;;4897129;29;20028;-74
2022/08/24 04:07:27;;;;;;;7.03;1.40;;;22.80;64.00;;;;;;4897627;29;20069;-75
2022/08/24 04:09:54;;;;;;;4.28;1.30;;;22.60;64.60;;;;;;4897565;29;20385;-75
2022/08/24 04:12:22;;;;;;;3.83;1.20;;;22.80;63.80;;;;;;4897849;29;20025;-74
2022/08/24 04:14:54;;;;;;;6.47;1.50;;;23.00;63.10;;;;;;4897316;29;20525;-74
2022/08/24 04:17:22;;;;;;;3.40;1.08;;;23.50;63.00;;;;;;4897445;29;20059;-65
2022/08/24 04:19:58;;;;;;;6.93;1.48;;;23.90;63.10;;;;;;4896238;29;20453;-75
2022/08/24 04:22:29;;;;;;;4.00;1.27;;;24.20;62.20;;;;;;4897142;29;20043;-75
2022/08/24 04:24:57;;;;;;;8.60;1.58;;;24.00;62.70;;;;;;4896857;29;20055;-74
2022/08/24 04:27:26;;;;;;;3.88;1.35;;;23.20;63.00;;;;;;4896605;29;20493;-71
2022/08/24 04:29:53;;;;;;;12.05;1.42;;;23.40;63.70;;;;;;4895464;29;20033;-68
2022/08/24 04:32:21;;;;;;;4.50;1.52;;;23.30;62.50;;;;;;4897250;29;20448;-68
2022/08/24 04:34:48;;;;;;;4.93;1.10;;;23.30;62.70;;;;;;4897096;29;20025;-72
2022/08/24 04:37:16;;;;;;;8.05;1.27;;;23.50;62.70;;;;;;4896974;29;20036;-72
2022/08/24 04:39:44;;;;;;;7.07;1.98;;;23.60;62.80;;;;;;4895536;29;20036;-76
2022/08/24 04:42:11;;;;;;;6.70;1.63;;;23.70;61.70;;;;;;4896591;29;20028;-67
2022/08/24 04:44:41;;;;;;;6.05;1.27;;;23.90;61.80;;;;;;4896764;29;20035;-76
2022/08/24 04:47:09;;;;;;;6.35;1.30;;;24.20;60.80;;;;;;4896579;29;20481;-73
2022/08/24 04:49:37;;;;;;;4.65;1.33;;;24.10;60.70;;;;;;4896597;29;20060;-71
2022/08/24 04:52:07;;;;;;;5.55;1.42;;;24.30;60.70;;;;;;4895978;29;20085;-68
2022/08/24 04:54:35;;;;;;;6.28;1.27;;;24.20;61.80;;;;;;4896955;29;20470;-76
2022/08/24 04:57:03;;;;;;;4.13;1.30;;;24.50;59.90;;;;;;4896770;29;20024;-69
2022/08/24 04:59:30;;;;;;;4.70;1.00;;;24.70;59.00;;;;;;4796252;29;2953353;-74
2022/08/24 05:02:01;;;;;;;6.97;1.13;;;24.70;58.90;;;;;;4896659;29;20310;-73
2022/08/24 05:04:28;;;;;;;4.85;1.10;;;24.60;59.40;;;;;;4897291;29;20020;-75
2022/08/24 05:06:56;;;;;;;4.40;1.30;;;24.30;59.70;;;;;;4896942;29;20042;-74
2022/08/24 05:09:23;;;;;;;3.50;0.77;;;24.40;60.70;;;;;;4897255;29;20112;-74
2022/08/24 05:11:52;;;;;;;6.32;1.10;;;24.00;60.80;;;;;;4897203;29;20028;-75
2022/08/24 05:14:19;;;;;;;4.63;1.50;;;23.30;62.10;;;;;;4897062;29;20443;-71
2022/08/24 05:16:47;;;;;;;7.70;1.63;;;23.20;62.20;;;;;;4897398;29;20108;-73
2022/08/24 05:19:14;;;;;;;4.50;0.93;;;23.30;61.50;;;;;;4897037;29;20032;-76
2022/08/24 05:21:43;;;;;;;4.95;1.40;;;23.50;61.70;;;;;;4895975;29;20061;-71
2022/08/24 05:24:10;;;;;;;5.93;1.25;;;23.80;61.20;;;;;;4868531;29;20036;-68
2022/08/24 05:26:38;;;;;;;4.68;1.42;;;24.00;62.10;;;;;;4888241;29;20017;-79
2022/08/24 05:29:05;;;;;;;7.28;1.40;;;24.40;61.70;;;;;;4895682;29;20466;-75
2022/08/24 05:31:34;;;;;;;4.60;1.13;;;24.40;60.10;;;;;;4895379;29;20081;-76
2022/08/24 05:34:02;;;;;;;4.72;1.05;;;24.40;60.60;;;;;;4896185;29;20052;-75
2022/08/24 05:36:37;;;;;;;3.58;0.88;;;24.30;60.90;;;;;;4895767;29;20088;-74
2022/08/24 05:39:13;;;;;;;3.80;0.90;;;24.40;61.20;;;;;;4895970;29;20040;-71
2022/08/24 05:41:43;;;;;;;4.38;0.90;;;24.70;59.80;;;;;;4893199;29;20016;-68
2022/08/24 05:44:11;;;;;;;7.85;1.13;;;24.70;59.30;;;;;;4893988;29;20067;-74
2022/08/24 05:46:39;;;;;;;5.88;0.98;;;24.70;59.40;;;;;;4894258;29;20111;-73
2022/08/24 05:49:07;;;;;;;6.53;1.08;;;24.20;60.70;;;;;;4893261;29;20028;-77
2022/08/24 05:51:36;;;;;;;4.65;0.98;;;24.10;61.40;;;;;;4894620;29;20021;-76
2022/08/24 05:54:05;;;;;;;4.75;0.90;;;24.40;60.40;;;;;;4891658;29;20556;-76
2022/08/24 05:56:32;;;;;;;6.35;1.30;;;24.20;60.10;;;;;;4894216;29;20037;-71
2022/08/24 05:59:01;;;;;;;3.78;1.30;;;24.20;60.80;;;;;;4894538;29;20049;-71
2022/08/24 06:01:29;;;;;;;4.40;1.00;;;24.30;60.60;;;;;;4893392;29;20407;-74
2022/08/24 06:03:57;;;;;;;4.45;1.02;;;24.40;61.20;;;;;;4895681;29;20031;-73
2022/08/24 06:06:25;;;;;;;6.25;1.15;;;24.40;60.60;;;;;;4898596;29;20039;-72
2022/08/24 06:08:55;;;;;;;7.88;0.93;;;24.50;59.90;;;;;;4900447;29;20028;-77
2022/08/24 06:11:38;;;;;;;5.80;1.17;;;24.20;60.60;;;;;;4896364;29;20120;-70
2022/08/24 06:14:11;;;;;;;;;;;23.90;61.70;;;;;;4899429;29;20028;-75
2022/08/24 06:16:41;;;;;;;5.60;1.20;;;23.70;61.30;;;;;;4899569;29;19947;-76
2022/08/24 06:19:11;;;;;;;7.20;1.40;;;23.60;62.00;;;;;;4898405;29;20037;-67
2022/08/24 06:21:40;;;;;;;6.53;1.40;;;23.60;62.40;;;;;;4898707;29;20552;-71
2022/08/24 06:24:08;;;;;;;8.10;1.60;;;23.40;62.60;;;;;;4898388;29;20033;-67
2022/08/24 06:29:21;;;;;;;4.88;1.40;;;22.90;63.60;;;;;;4898357;29;20100;-66
2022/08/24 06:31:49;;;;;;;7.47;1.10;;;22.70;63.40;;;;;;4898214;29;20017;-69
2022/08/24 06:34:18;;;;;;;3.65;1.10;;;22.60;64.20;;;;;;4898437;29;21069;-70
2022/08/24 06:36:46;;;;;;;4.43;1.38;;;22.60;63.60;;;;;;4898617;29;20119;-67
2022/08/24 06:39:14;;;;;;;9.40;1.30;;;22.40;64.40;;;;;;4898142;29;20119;-68
2022/08/24 06:41:41;;;;;;;4.47;0.95;;;22.30;64.90;;;;;;4897398;29;20033;-79
2022/08/24 06:44:09;;;;;;;5.35;1.15;;;22.10;64.80;;;;;;4898236;29;20029;-67
2022/08/24 06:46:38;;;;;;;7.63;1.30;;;22.00;65.20;;;;;;4899261;29;20054;-75
2022/08/24 06:49:06;;;;;;;4.40;1.08;;;21.70;65.30;;;;;;4911971;29;20040;-70
2022/08/24 06:51:34;;;;;;;4.50;1.27;;;21.50;66.10;;;;;;4897364;29;20394;-68
2022/08/24 06:54:01;;;;;;;7.40;2.15;;;21.00;66.20;;;;;;4897388;29;20104;-72
2022/08/24 06:56:29;;;;;;;5.88;1.50;;;20.40;67.70;;;;;;4897912;29;20029;-68
2022/08/24 06:58:56;;;;;;;5.57;1.98;;;19.70;69.40;;;;;;4897139;29;20052;-67
2022/08/24 07:01:27;;;;;;;8.98;1.42;;;19.10;70.30;;;;;;4897212;29;20084;-68
2022/08/24 07:03:55;;;;;;;8.27;1.00;;;18.60;71.70;;;;;;4897421;29;20060;-70
2022/08/24 07:06:24;;;;;;;8.05;1.50;;;18.10;72.60;;;;;;4895720;29;20600;-67
2022/08/24 07:08:52;;;;;;;4.53;1.00;;;17.70;74.20;;;;;;4897818;29;20070;-68
2022/08/24 07:11:24;;;;;;;4.68;1.92;;;17.30;74.90;;;;;;4896684;29;20744;-68
2022/08/24 07:13:51;;;;;;;7.90;1.95;;;17.00;76.00;;;;;;4892626;29;20036;-70
2022/08/24 07:16:20;;;;;;;5.68;1.35;;;16.80;76.90;;;;;;4897672;29;20533;-67
2022/08/24 07:18:48;;;;;;;5.70;1.15;;;16.60;78.00;;;;;;4897138;29;20060;-67
2022/08/24 07:21:18;;;;;;;9.15;2.33;;;16.50;78.40;;;;;;4909018;29;20029;-65
2022/08/24 07:23:46;;;;;;;6.55;1.80;;;16.30;78.90;;;;;;4896552;29;20037;-68
2022/08/24 07:26:21;;;;;;;4.28;1.50;;;16.20;79.30;;;;;;4895147;29;20025;-68
2022/08/24 07:29:09;;;;;;;6.45;2.13;;;16.10;80.30;;;;;;4897982;29;20505;-68
2022/08/24 07:31:39;;;;;;;6.30;1.70;;;15.90;80.80;;;;;;4896994;29;20182;-68
2022/08/24 07:34:08;;;;;;;4.10;1.20;;;15.80;81.40;;;;;;4896656;29;20027;-66
2022/08/24 07:36:39;;;;;;;4.78;1.50;;;15.70;81.60;;;;;;4894835;29;20115;-68
2022/08/24 07:39:07;;;;;;;6.93;1.80;;;15.50;82.00;;;;;;4897609;29;20028;-69
2022/08/24 07:41:40;;;;;;;6.97;2.25;;;15.40;82.70;;;;;;4897017;29;20656;-65
2022/08/24 07:44:08;;;;;;;7.85;2.05;;;15.30;83.60;;;;;;4897152;29;20112;-65
2022/08/24 07:46:37;;;;;;;7.63;1.90;;;15.30;83.60;;;;;;4897469;29;20048;-67
2022/08/24 07:49:06;;;;;;;8.98;2.00;;;15.20;84.30;;;;;;4897445;29;20427;-66
2022/08/24 07:51:35;;;;;;;5.53;1.60;;;15.00;84.60;;;;;;4879096;29;20044;-67
2022/08/24 07:54:03;;;;;;;5.72;1.60;;;15.00;84.40;;;;;;4893319;29;20035;-69
2022/08/24 07:56:31;;;;;;;8.35;1.98;;;14.90;85.00;;;;;;4896571;29;20036;-72
2022/08/24 07:59:01;;;;;;;10.48;2.65;;;14.90;85.40;;;;;;4896632;29;20095;-68
2022/08/24 08:01:29;;;;;;;6.40;3.03;;;14.80;85.80;;;;;;4895590;29;20024;-71
2022/08/24 08:03:56;;;;;;;7.30;2.47;;;14.70;86.60;;;;;;4896744;29;20462;-73
2022/08/24 08:06:24;;;;;;;8.77;2.65;;;14.60;87.30;;;;;;4895900;29;20083;-67
2022/08/24 08:08:51;;;;;;;4.70;2.15;;;14.50;87.80;;;;;;4897244;29;20330;-67
2022/08/24 08:11:19;;;;;;;9.13;3.40;;;14.40;88.70;;;;;;4897160;29;20448;-68
2022/08/24 08:13:46;;;;;;;10.13;3.20;;;14.30;89.00;;;;;;4895487;29;20043;-69
2022/08/24 08:16:14;;;;;;;8.70;3.72;;;14.20;89.60;;;;;;4895244;29;20025;-69
2022/08/24 08:18:43;;;;;;;8.82;2.88;;;14.10;90.00;;;;;;4895021;29;20068;-74
2022/08/24 08:24:13;;;;;;;9.65;4.88;;;14.00;90.80;;;;;;4896317;29;20024;-67
2022/08/24 08:24:17;;;;;;;15.45;7.30;;;13.90;90.90;;;;;;4895720;29;20544;-69
2022/08/24 08:26:45;;;;;;;11.70;6.80;;;13.80;91.00;;;;;;4896011;29;20037;-67
2022/08/24 08:29:14;;;;;;;8.35;4.82;;;13.70;91.30;;;;;;4896607;29;20038;-66
2022/08/24 08:31:42;;;;;;;10.20;5.05;;;13.60;91.60;;;;;;4895875;29;20021;-68
2022/08/24 08:34:10;;;;;;;11.65;5.22;;;13.60;91.70;;;;;;4896255;29;20688;-70
2022/08/24 08:36:39;;;;;;;14.88;4.70;;;13.60;92.00;;;;;;4896535;29;20036;-66
2022/08/24 08:39:09;;;;;;;8.35;4.55;;;13.40;92.20;;;;;;4896622;29;20041;-67
2022/08/24 08:42:00;;;;;;;11.75;5.68;;;13.40;92.40;;;;;;4895375;29;20040;-68
2022/08/24 08:44:40;;;;;;;15.18;5.85;;;13.30;92.70;;;;;;4891776;29;20029;-70
2022/08/24 08:47:32;;;;;;;11.88;5.70;;;13.30;93.00;;;;;;4894394;29;20028;-65
2022/08/24 08:50:24;;;;;;;12.15;5.22;;;13.10;93.30;;;;;;4895839;29;20553;-70
2022/08/24 08:53:16;;;;;;;11.07;5.63;;;13.10;93.60;;;;;;4894176;29;20029;-70
2022/08/24 08:56:05;;;;;;;9.95;3.95;;;13.00;93.80;;;;;;4893227;29;20032;-65
2022/08/24 08:59:13;;;;;;;6.70;4.45;;;12.90;94.10;;;;;;4895457;29;20068;-65
2022/08/24 09:01:49;;;;;;;7.95;4.43;;;12.90;94.40;;;;;;4879440;29;20040;-66
2022/08/24 09:04:51;;;;;;;9.05;4.05;;;12.80;94.80;;;;;;4895684;29;20054;-70
2022/08/24 09:07:31;;;;;;;11.75;5.28;;;12.70;95.00;;;;;;4895771;29;20025;-70
2022/08/24 09:10:07;;;;;;;11.00;5.38;;;12.70;95.10;;;;;;4896216;29;20021;-67
2022/08/24 09:13:01;;;;;;;12.90;4.97;;;12.70;95.50;;;;;;4893662;29;20076;-66
2022/08/24 09:15:47;;;;;;;10.38;4.72;;;12.60;95.70;;;;;;4892976;29;20402;-66
2022/08/24 09:18:53;;;;;;;11.30;5.03;;;12.60;95.70;;;;;;4893690;29;20477;-67
2022/08/24 09:22:11;;;;;;;14.38;6.68;;;12.50;96.10;;;;;;4894242;29;20040;-66
2022/08/24 09:25:19;;;;;;;10.30;4.32;;;12.40;96.20;;;;;;4835916;29;20034;-69
2022/08/24 09:27:51;;;;;;;9.93;4.55;;;12.40;96.40;;;;;;4833696;29;20067;-69
2022/08/24 09:30:22;;;;;;;11.45;4.07;;;12.30;96.50;;;;;;4887641;29;20033;-66
2022/08/24 09:33:08;;;;;;;9.85;5.07;;;12.20;96.90;;;;;;4896051;29;20024;-66
2022/08/24 09:35:50;;;;;;;10.25;4.90;;;12.20;97.10;;;;;;4895875;29;20029;-72
2022/08/24 09:38:43;;;;;;;14.17;6.10;;;12.20;97.50;;;;;;4896008;29;20140;-67
2022/08/24 09:41:13;;;;;;;;;;;12.10;97.60;;;;;;4892164;29;20272;-66
2022/08/24 09:43:43;;;;;;;9.75;4.68;;;12.10;97.80;;;;;;4895827;29;19911;-68
2022/08/24 09:46:13;;;;;;;9.80;4.47;;;12.10;98.00;;;;;;4896266;29;20020;-65
2022/08/24 09:49:01;;;;;;;14.32;5.07;;;12.10;98.20;;;;;;4896423;29;20020;-70
2022/08/24 09:51:53;;;;;;;9.80;4.70;;;12.00;98.20;;;;;;4895802;29;20028;-65
2022/08/24 09:55:08;;;;;;;11.57;4.82;;;12.00;98.30;;;;;;4876702;29;20039;-66
2022/08/24 09:58:01;;;;;;;9.15;4.72;;;12.00;97.10;;;;;;4875452;29;20047;-69
2022/08/24 10:00:50;;;;;;;8.02;3.65;;;12.00;95.90;;;;;;4877509;29;20036;-72
2022/08/24 10:03:53;;;;;;;6.10;2.00;;;12.10;94.30;;;;;;4894377;29;20040;-67
2022/08/24 10:06:32;;;;;;;7.28;2.10;;;12.20;92.40;;;;;;4896225;29;20048;-66
2022/08/24 10:09:20;;;;;;;5.47;1.98;;;12.40;91.30;;;;;;4896085;29;20025;-67
2022/08/24 10:12:16;;;;;;;4.32;1.67;;;12.40;90.50;;;;;;4895702;29;20075;-67
2022/08/24 10:15:03;;;;;;;2.38;1.02;;;12.40;90.10;;;;;;4895978;29;20020;-69
2022/08/24 10:17:57;;;;;;;2.80;1.38;;;12.50;89.10;;;;;;4894604;29;20103;-69
2022/08/24 10:20:29;;;;;;;3.10;1.58;;;12.50;88.30;;;;;;4895664;29;20049;-70
2022/08/24 10:23:07;;;;;;;4.63;1.57;;;12.50;87.80;;;;;;4895678;29;20036;-76
2022/08/24 10:25:53;;;;;;;3.80;0.90;;;12.50;87.70;;;;;;4896152;29;20025;-71
2022/08/24 10:28:56;;;;;;;2.20;1.00;;;12.50;87.20;;;;;;4895733;29;20036;-69
2022/08/24 10:31:27;;;;;;;3.88;1.70;;;12.50;86.30;;;;;;4895497;29;20500;-79
2022/08/24 10:34:12;;;;;;;3.70;1.33;;;12.50;86.70;;;;;;4896242;29;20032;-68
2022/08/24 10:36:49;;;;;;;3.28;0.93;;;12.40;87.20;;;;;;4895557;29;20525;-70
2022/08/24 10:39:41;;;;;;;5.57;1.20;;;12.40;86.50;;;;;;4895754;29;20541;-72
2022/08/24 10:45:35;;;;;;;2.65;1.20;;;12.30;86.60;;;;;;4895723;29;20890;-67
2022/08/24 10:48:31;;;;;;;3.30;1.48;;;12.30;87.40;;;;;;4896018;29;20112;-69
2022/08/24 10:51:43;;;;;;;2.78;1.17;;;12.20;87.30;;;;;;4893228;29;20037;-70
2022/08/24 10:54:12;;;;;;;3.55;1.20;;;12.20;86.80;;;;;;4872215;29;20071;-69
2022/08/24 10:57:04;;;;;;;2.25;1.00;;;12.10;86.50;;;;;;4891203;29;20039;-77
2022/08/24 10:59:34;;;;;;;2.15;0.85;;;12.10;86.50;;;;;;4898436;29;20139;-77
2022/08/24 11:02:28;;;;;;;1.75;0.95;;;12.10;86.00;;;;;;4899080;29;20529;-71
2022/08/24 11:05:07;;;;;;;2.88;0.80;;;12.00;86.60;;;;;;4898679;29;20257;-67
2022/08/24 11:07:35;;;;;;;3.55;1.02;;;12.00;86.80;;;;;;4898467;29;20031;-74
2022/08/24 11:10:07;;;;;;;3.75;0.90;;;12.10;86.00;;;;;;4898910;29;20024;-72
2022/08/24 11:12:43;;;;;;;2.20;0.77;;;12.10;85.70;;;;;;4898519;29;20029;-68
2022/08/24 11:15:22;;;;;;;4.68;1.20;;;12.00;86.40;;;;;;4898617;29;20275;-69
2022/08/24 11:18:01;;;;;;;4.60;1.67;;;12.00;86.30;;;;;;4898124;29;20072;-69
2022/08/24 11:20:41;;;;;;;2.42;0.90;;;12.00;86.10;;;;;;4898437;29;20040;-70
2022/08/24 11:23:10;;;;;;;2.50;0.70;;;12.00;86.70;;;;;;4897971;29;20473;-76
2022/08/24 11:25:41;;;;;;;2.67;0.80;;;11.90;86.50;;;;;;4898279;29;20091;-74
2022/08/24 11:28:32;;;;;;;2.22;1.20;;;11.90;86.90;;;;;;4894370;29;20032;-76
2022/08/24 11:31:00;;;;;;;3.60;0.80;;;11.90;87.40;;;;;;4879757;29;20044;-71
2022/08/24 11:33:35;;;;;;;3.33;0.80;;;11.90;86.60;;;;;;4881183;29;20383;-72
2022/08/24 11:36:13;;;;;;;2.15;0.80;;;11.80;86.50;;;;;;4898188;29;20028;-71
2022/08/24 11:38:40;;;;;;;2.30;0.98;;;11.90;86.60;;;;;;4898602;29;20123;-71
2022/08/24 11:41:23;;;;;;;2.58;0.85;;;11.90;86.40;;;;;;4897943;29;20016;-74
2022/08/24 11:44:06;;;;;;;3.55;0.82;;;11.90;86.90;;;;;;4898470;29;20390;-69
2022/08/24 11:46:57;;;;;;;2.25;1.20;;;11.80;87.00;;;;;;4897816;29;20032;-68
2022/08/24 11:49:32;;;;;;;3.10;0.93;;;11.80;87.90;;;;;;4897871;29;20492;-70
2022/08/24 11:52:06;;;;;;;4.30;1.10;;;11.70;87.70;;;;;;4898079;29;20037;-67
2022/08/24 11:54:38;;;;;;;2.05;0.77;;;11.70;88.10;;;;;;4896502;29;20031;-76
2022/08/24 11:57:28;;;;;;;4.97;1.67;;;11.60;88.30;;;;;;4898211;29;20089;-76
2022/08/24 12:00:22;;;;;;;7.13;1.30;;;11.50;87.80;;;;;;4895244;29;20412;-74
2022/08/24 12:03:25;;;;;;;4.75;2.20;;;11.50;88.10;;;;;;4911029;29;20063;-73
2022/08/24 12:06:18;;;;;;;3.58;1.15;;;11.50;88.60;;;;;;4889326;29;20040;-73
2022/08/24 12:09:02;;;;;;;3.55;1.35;;;11.50;88.90;;;;;;4895726;29;20032;-68
2022/08/24 12:11:59;;;;;;;2.70;0.88;;;11.50;88.70;;;;;;4898174;29;20706;-68
2022/08/24 12:14:51;;;;;;;2.53;0.88;;;11.40;88.50;;;;;;4898156;29;20497;-70
2022/08/24 12:17:46;;;;;;;3.22;1.00;;;11.40;88.10;;;;;;4898086;29;20123;-74
2022/08/24 12:20:22;;;;;;;2.83;0.85;;;11.40;88.50;;;;;;4896787;29;20063;-71
2022/08/24 12:22:55;;;;;;;4.78;0.93;;;11.30;88.50;;;;;;4897003;29;20069;-72
2022/08/24 12:28:09;;;;;;;1.80;0.98;;;11.40;88.50;;;;;;4898200;29;19919;-71
2022/08/24 12:30:37;;;;;;;2.42;0.85;;;11.30;88.80;;;;;;4897749;29;20034;-71
2022/08/24 12:33:11;;;;;;;2.38;0.80;;;11.30;88.60;;;;;;4897625;29;20060;-77
2022/08/24 12:35:54;;;;;;;5.65;1.30;;;11.30;88.90;;;;;;4897581;29;20056;-77
2022/08/24 12:38:42;;;;;;;2.75;1.00;;;11.20;89.30;;;;;;4897694;29;20431;-73
2022/08/24 12:41:31;;;;;;;3.25;0.90;;;11.20;88.80;;;;;;4897183;29;20035;-69
2022/08/24 12:44:14;;;;;;;2.75;0.80;;;11.20;89.00;;;;;;4897474;29;20101;-70
2022/08/24 12:46:43;;;;;;;;;;;11.10;88.90;;;;;;4897245;29;20029;-70
2022/08/24 12:49:26;;;;;;;3.13;1.25;;;11.10;89.00;;;;;;4897817;29;20266;-69
2022/08/24 12:52:10;;;;;;;;;;;11.10;89.40;;;;;;4897937;29;20108;-67
2022/08/24 12:55:22;;;;;;;4.72;0.80;;;11.10;89.60;;;;;;4897136;29;19930;-68
2022/08/24 12:58:07;;;;;;;5.32;1.23;;;11.10;89.20;;;;;;4897478;29;20052;-68
2022/08/24 13:00:46;;;;;;;3.35;0.88;;;11.10;89.20;;;;;;4897184;29;20037;-72
2022/08/24 13:03:33;;;;;;;2.88;1.50;;;11.00;89.00;;;;;;4895637;29;20024;-72
2022/08/24 13:06:09;;;;;;;4.75;2.30;;;11.00;88.90;;;;;;4896738;29;20115;-68
2022/08/24 13:08:45;;;;;;;6.60;3.00;;;11.00;89.20;;;;;;4897414;29;20044;-73
2022/08/24 13:11:29;;;;;;;7.63;4.20;;;11.00;89.10;;;;;;4896935;29;20028;-73
2022/08/24 13:14:16;;;;;;;9.25;4.30;;;10.90;88.80;;;;;;4895989;29;20032;-71
2022/08/24 13:16:50;;;;;;;7.80;3.28;;;10.90;89.30;;;;;;4896473;29;20557;-73
2022/08/24 13:19:29;;;;;;;4.68;2.78;;;10.90;89.60;;;;;;4896769;29;20045;-69
2022/08/24 13:22:01;;;;;;;2.83;1.70;;;11.00;89.70;;;;;;4896987;29;20020;-68
2022/08/24 13:24:28;;;;;;;3.17;1.38;;;10.90;89.50;;;;;;4895312;29;20028;-70
2022/08/24 13:27:15;;;;;;;3.35;0.90;;;10.90;89.60;;;;;;4895465;29;20125;-67
2022/08/24 13:30:03;;;;;;;3.47;1.42;;;10.90;89.70;;;;;;4886402;29;20041;-70
2022/08/24 13:32:55;;;;;;;2.88;0.98;;;10.90;89.70;;;;;;4897414;29;20021;-68
2022/08/24 13:35:41;;;;;;;3.15;1.08;;;10.80;90.00;;;;;;4896881;29;20044;-67
2022/08/24 13:38:35;;;;;;;4.60;1.00;;;10.80;89.90;;;;;;4896904;29;20025;-76